Aviation Digital Data Service (ADDS)

Output produced by METARs form (2317 UTC 29 April 2017)
found at http://aviationweather.gov/adds/metars/
 
KMSS 292308Z 2923/3018 30012KT P6SM SKC 
     FM300300 35008KT P6SM SKC 
     FM301100 06008KT P6SM BKN090 
     FM301700 06010KT P6SM VCSH OVC070